sensor_id;sensor_type;location;lat;lon;timestamp;temperature;humidity
16879;DHT22;8556;52.218;9.884;2022-11-09T00:00:37;14.80;73.10
16879;DHT22;8556;52.218;9.884;2022-11-09T00:03:04;14.80;99.90
16879;DHT22;8556;52.218;9.884;2022-11-09T00:05:31;14.70;99.90
16879;DHT22;8556;52.218;9.884;2022-11-09T00:07:58;14.90;99.90
16879;DHT22;8556;52.218;9.884;2022-11-09T00:10:26;14.80;99.90
16879;DHT22;8556;52.218;9.884;2022-11-09T00:12:53;14.90;99.90
16879;DHT22;8556;52.218;9.884;2022-11-09T00:15:20;15.00;99.90
16879;DHT22;8556;52.218;9.884;2022-11-09T00:17:47;15.00;5.90
16879;DHT22;8556;52.218;9.884;2022-11-09T00:20:14;14.80;99.90
16879;DHT22;8556;52.218;9.884;2022-11-09T00:22:40;14.80;99.90
16879;DHT22;8556;52.218;9.884;2022-11-09T00:25:08;14.80;99.90
16879;DHT22;8556;52.218;9.884;2022-11-09T00:27:36;14.70;99.90
16879;DHT22;8556;52.218;9.884;2022-11-09T00:30:04;14.60;99.90
16879;DHT22;8556;52.218;9.884;2022-11-09T00:32:31;14.80;99.90
16879;DHT22;8556;52.218;9.884;2022-11-09T00:34:58;14.60;99.90
16879;DHT22;8556;52.218;9.884;2022-11-09T00:37:25;14.60;99.90
16879;DHT22;8556;52.218;9.884;2022-11-09T00:39:52;14.60;99.90
16879;DHT22;8556;52.218;9.884;2022-11-09T00:42:18;14.90;1.00
16879;DHT22;8556;52.218;9.884;2022-11-09T00:44:47;14.80;1.00
16879;DHT22;8556;52.218;9.884;2022-11-09T00:47:13;14.80;1.00
16879;DHT22;8556;52.218;9.884;2022-11-09T00:49:40;14.90;1.00
16879;DHT22;8556;52.218;9.884;2022-11-09T00:52:07;14.80;1.00
16879;DHT22;8556;52.218;9.884;2022-11-09T00:54:34;14.90;1.00
16879;DHT22;8556;52.218;9.884;2022-11-09T00:57:01;14.80;1.00
16879;DHT22;8556;52.218;9.884;2022-11-09T00:59:28;14.80;1.00
16879;DHT22;8556;52.218;9.884;2022-11-09T01:01:56;14.90;1.00
16879;DHT22;8556;52.218;9.884;2022-11-09T01:04:23;14.90;1.00
16879;DHT22;8556;52.218;9.884;2022-11-09T01:06:49;15.10;1.00
16879;DHT22;8556;52.218;9.884;2022-11-09T01:09:16;15.00;1.00
16879;DHT22;8556;52.218;9.884;2022-11-09T01:11:43;15.00;1.00
16879;DHT22;8556;52.218;9.884;2022-11-09T01:14:10;14.80;1.00
16879;DHT22;8556;52.218;9.884;2022-11-09T01:16:38;14.90;1.00
16879;DHT22;8556;52.218;9.884;2022-11-09T01:19:06;15.00;1.00
16879;DHT22;8556;52.218;9.884;2022-11-09T01:21:33;15.00;1.00
16879;DHT22;8556;52.218;9.884;2022-11-09T01:23:59;15.00;1.00
16879;DHT22;8556;52.218;9.884;2022-11-09T01:26:27;15.00;1.00
16879;DHT22;8556;52.218;9.884;2022-11-09T01:28:54;15.00;1.00
16879;DHT22;8556;52.218;9.884;2022-11-09T01:31:21;15.00;1.00
16879;DHT22;8556;52.218;9.884;2022-11-09T01:33:48;15.10;1.00
16879;DHT22;8556;52.218;9.884;2022-11-09T01:36:18;15.10;1.00
16879;DHT22;8556;52.218;9.884;2022-11-09T01:38:46;15.10;1.00
16879;DHT22;8556;52.218;9.884;2022-11-09T01:41:15;15.10;1.00
16879;DHT22;8556;52.218;9.884;2022-11-09T01:43:42;15.00;1.00
16879;DHT22;8556;52.218;9.884;2022-11-09T01:46:15;15.00;1.00
16879;DHT22;8556;52.218;9.884;2022-11-09T01:48:47;15.00;1.00
16879;DHT22;8556;52.218;9.884;2022-11-09T01:51:21;15.10;1.00
16879;DHT22;8556;52.218;9.884;2022-11-09T01:53:52;15.20;1.00
16879;DHT22;8556;52.218;9.884;2022-11-09T01:56:19;15.30;1.00
16879;DHT22;8556;52.218;9.884;2022-11-09T01:58:49;15.20;1.00
16879;DHT22;8556;52.218;9.884;2022-11-09T02:01:18;15.10;1.00
16879;DHT22;8556;52.218;9.884;2022-11-09T02:03:47;15.10;1.00
16879;DHT22;8556;52.218;9.884;2022-11-09T02:06:19;15.10;1.00
16879;DHT22;8556;52.218;9.884;2022-11-09T02:08:47;15.10;1.00
16879;DHT22;8556;52.218;9.884;2022-11-09T02:11:16;15.20;1.00
16879;DHT22;8556;52.218;9.884;2022-11-09T02:13:47;15.20;1.00
16879;DHT22;8556;52.218;9.884;2022-11-09T02:16:15;15.10;1.00
16879;DHT22;8556;52.218;9.884;2022-11-09T02:18:48;15.20;1.00
16879;DHT22;8556;52.218;9.884;2022-11-09T02:21:18;15.20;1.00
16879;DHT22;8556;52.218;9.884;2022-11-09T02:23:45;15.20;1.00
16879;DHT22;8556;52.218;9.884;2022-11-09T02:26:14;15.20;1.00
16879;DHT22;8556;52.218;9.884;2022-11-09T02:28:42;15.20;1.00
16879;DHT22;8556;52.218;9.884;2022-11-09T02:31:10;15.10;1.00
16879;DHT22;8556;52.218;9.884;2022-11-09T02:33:42;15.10;32.00
16879;DHT22;8556;52.218;9.884;2022-11-09T02:36:09;15.10;4.40
16879;DHT22;8556;52.218;9.884;2022-11-09T02:38:38;14.90;99.90
16879;DHT22;8556;52.218;9.884;2022-11-09T02:41:05;14.90;99.90
16879;DHT22;8556;52.218;9.884;2022-11-09T02:43:33;15.00;99.90
16879;DHT22;8556;52.218;9.884;2022-11-09T02:46:01;15.10;99.90
16879;DHT22;8556;52.218;9.884;2022-11-09T02:48:28;15.20;99.10
16879;DHT22;8556;52.218;9.884;2022-11-09T02:50:55;15.20;8.10
16879;DHT22;8556;52.218;9.884;2022-11-09T02:53:21;15.10;99.90
16879;DHT22;8556;52.218;9.884;2022-11-09T02:55:50;15.10;99.90
16879;DHT22;8556;52.218;9.884;2022-11-09T02:58:16;15.20;99.90
16879;DHT22;8556;52.218;9.884;2022-11-09T03:00:43;15.20;99.90
16879;DHT22;8556;52.218;9.884;2022-11-09T03:03:10;15.20;99.90
16879;DHT22;8556;52.218;9.884;2022-11-09T03:05:37;15.10;99.90
16879;DHT22;8556;52.218;9.884;2022-11-09T03:08:04;15.00;99.90
16879;DHT22;8556;52.218;9.884;2022-11-09T03:10:30;15.00;99.90
16879;DHT22;8556;52.218;9.884;2022-11-09T03:12:59;15.10;99.90
16879;DHT22;8556;52.218;9.884;2022-11-09T03:15:25;15.20;99.90
16879;DHT22;8556;52.218;9.884;2022-11-09T03:17:52;15.10;99.90
16879;DHT22;8556;52.218;9.884;2022-11-09T03:20:19;15.00;99.90
16879;DHT22;8556;52.218;9.884;2022-11-09T03:22:46;15.00;99.90
16879;DHT22;8556;52.218;9.884;2022-11-09T03:25:13;15.00;99.90
16879;DHT22;8556;52.218;9.884;2022-11-09T03:27:39;15.20;99.90
16879;DHT22;8556;52.218;9.884;2022-11-09T03:30:09;15.00;99.90
16879;DHT22;8556;52.218;9.884;2022-11-09T03:32:36;15.10;99.90
16879;DHT22;8556;52.218;9.884;2022-11-09T03:35:03;15.10;99.90
16879;DHT22;8556;52.218;9.884;2022-11-09T03:37:30;15.00;99.90
16879;DHT22;8556;52.218;9.884;2022-11-09T03:39:56;15.10;99.90
16879;DHT22;8556;52.218;9.884;2022-11-09T03:42:23;15.00;1.00
16879;DHT22;8556;52.218;9.884;2022-11-09T03:44:50;15.10;99.90
16879;DHT22;8556;52.218;9.884;2022-11-09T03:47:19;15.10;99.90
16879;DHT22;8556;52.218;9.884;2022-11-09T03:49:45;15.00;99.90
16879;DHT22;8556;52.218;9.884;2022-11-09T03:52:12;15.00;99.90
16879;DHT22;8556;52.218;9.884;2022-11-09T03:54:39;15.00;1.00
16879;DHT22;8556;52.218;9.884;2022-11-09T03:57:06;15.00;1.00
16879;DHT22;8556;52.218;9.884;2022-11-09T03:59:33;14.90;1.00
16879;DHT22;8556;52.218;9.884;2022-11-09T04:02:00;14.90;1.00
16879;DHT22;8556;52.218;9.884;2022-11-09T04:04:28;14.90;1.00
16879;DHT22;8556;52.218;9.884;2022-11-09T04:06:55;14.80;1.00
16879;DHT22;8556;52.218;9.884;2022-11-09T04:09:22;14.80;1.00
16879;DHT22;8556;52.218;9.884;2022-11-09T04:11:49;14.90;1.00
16879;DHT22;8556;52.218;9.884;2022-11-09T04:14:15;14.70;1.00
16879;DHT22;8556;52.218;9.884;2022-11-09T04:16:42;14.80;1.00
16879;DHT22;8556;52.218;9.884;2022-11-09T04:19:09;14.70;99.90
16879;DHT22;8556;52.218;9.884;2022-11-09T04:21:37;14.60;99.90
16879;DHT22;8556;52.218;9.884;2022-11-09T04:24:04;14.70;99.90
16879;DHT22;8556;52.218;9.884;2022-11-09T04:26:31;14.60;1.00
16879;DHT22;8556;52.218;9.884;2022-11-09T04:28:58;14.50;1.00
16879;DHT22;8556;52.218;9.884;2022-11-09T04:31:25;14.50;1.00
16879;DHT22;8556;52.218;9.884;2022-11-09T04:33:51;14.50;30.40
16879;DHT22;8556;52.218;9.884;2022-11-09T04:36:18;14.40;99.90
16879;DHT22;8556;52.218;9.884;2022-11-09T04:38:46;14.50;99.90
16879;DHT22;8556;52.218;9.884;2022-11-09T04:41:13;14.40;1.00
16879;DHT22;8556;52.218;9.884;2022-11-09T04:43:40;14.30;1.00
16879;DHT22;8556;52.218;9.884;2022-11-09T04:46:07;14.30;1.00
16879;DHT22;8556;52.218;9.884;2022-11-09T04:48:34;14.30;1.00
16879;DHT22;8556;52.218;9.884;2022-11-09T04:51:02;14.30;95.80
16879;DHT22;8556;52.218;9.884;2022-11-09T04:53:29;14.20;99.90
16879;DHT22;8556;52.218;9.884;2022-11-09T04:55:58;14.20;1.00
16879;DHT22;8556;52.218;9.884;2022-11-09T04:58:25;14.20;1.00
16879;DHT22;8556;52.218;9.884;2022-11-09T05:00:52;14.10;8.60
16879;DHT22;8556;52.218;9.884;2022-11-09T05:03:19;14.10;99.90
16879;DHT22;8556;52.218;9.884;2022-11-09T05:05:46;14.10;99.90
16879;DHT22;8556;52.218;9.884;2022-11-09T05:08:13;14.00;1.00
16879;DHT22;8556;52.218;9.884;2022-11-09T05:10:40;14.00;1.00
16879;DHT22;8556;52.218;9.884;2022-11-09T05:13:11;14.10;1.00
16879;DHT22;8556;52.218;9.884;2022-11-09T05:15:38;14.30;1.00
16879;DHT22;8556;52.218;9.884;2022-11-09T05:18:07;14.40;99.90
16879;DHT22;8556;52.218;9.884;2022-11-09T05:20:36;14.20;99.90
16879;DHT22;8556;52.218;9.884;2022-11-09T05:23:04;14.20;1.00
16879;DHT22;8556;52.218;9.884;2022-11-09T05:25:48;14.30;99.90
16879;DHT22;8556;52.218;9.884;2022-11-09T05:28:21;14.10;1.00
16879;DHT22;8556;52.218;9.884;2022-11-09T05:30:48;14.10;99.90
16879;DHT22;8556;52.218;9.884;2022-11-09T05:33:15;14.20;1.00
16879;DHT22;8556;52.218;9.884;2022-11-09T05:35:42;14.10;1.00
16879;DHT22;8556;52.218;9.884;2022-11-09T05:38:09;14.10;99.90
16879;DHT22;8556;52.218;9.884;2022-11-09T05:40:36;14.20;99.90
16879;DHT22;8556;52.218;9.884;2022-11-09T05:43:02;14.10;15.00
16879;DHT22;8556;52.218;9.884;2022-11-09T05:45:31;14.00;1.00
16879;DHT22;8556;52.218;9.884;2022-11-09T05:47:57;14.10;1.00
16879;DHT22;8556;52.218;9.884;2022-11-09T05:50:24;14.00;1.00
16879;DHT22;8556;52.218;9.884;2022-11-09T05:52:51;14.10;99.90
16879;DHT22;8556;52.218;9.884;2022-11-09T05:55:19;14.00;1.00
16879;DHT22;8556;52.218;9.884;2022-11-09T05:57:45;13.90;1.00
16879;DHT22;8556;52.218;9.884;2022-11-09T06:00:14;13.90;2.60
16879;DHT22;8556;52.218;9.884;2022-11-09T06:02:42;13.90;1.00
16879;DHT22;8556;52.218;9.884;2022-11-09T06:05:09;13.80;99.90
16879;DHT22;8556;52.218;9.884;2022-11-09T06:07:36;13.80;99.90
16879;DHT22;8556;52.218;9.884;2022-11-09T06:10:04;13.70;99.90
16879;DHT22;8556;52.218;9.884;2022-11-09T06:12:34;13.60;1.00
16879;DHT22;8556;52.218;9.884;2022-11-09T06:15:16;13.80;1.00
16879;DHT22;8556;52.218;9.884;2022-11-09T06:17:50;13.70;1.00
16879;DHT22;8556;52.218;9.884;2022-11-09T06:20:28;13.70;1.00
16879;DHT22;8556;52.218;9.884;2022-11-09T06:23:08;13.80;1.00
16879;DHT22;8556;52.218;9.884;2022-11-09T06:25:37;14.00;1.00
16879;DHT22;8556;52.218;9.884;2022-11-09T06:28:04;13.90;99.90
16879;DHT22;8556;52.218;9.884;2022-11-09T06:30:31;13.90;1.00
16879;DHT22;8556;52.218;9.884;2022-11-09T06:33:00;13.90;1.00
16879;DHT22;8556;52.218;9.884;2022-11-09T06:35:28;13.80;1.00
16879;DHT22;8556;52.218;9.884;2022-11-09T06:37:55;13.80;1.00
16879;DHT22;8556;52.218;9.884;2022-11-09T06:40:22;13.70;1.00
16879;DHT22;8556;52.218;9.884;2022-11-09T06:42:50;13.80;1.00
16879;DHT22;8556;52.218;9.884;2022-11-09T06:45:17;14.00;1.00
16879;DHT22;8556;52.218;9.884;2022-11-09T06:47:43;13.90;1.00
16879;DHT22;8556;52.218;9.884;2022-11-09T06:50:12;13.90;1.00
16879;DHT22;8556;52.218;9.884;2022-11-09T06:52:38;14.00;1.00
16879;DHT22;8556;52.218;9.884;2022-11-09T06:55:07;13.80;1.00
16879;DHT22;8556;52.218;9.884;2022-11-09T06:57:34;13.70;1.00
16879;DHT22;8556;52.218;9.884;2022-11-09T07:00:01;13.80;1.00
16879;DHT22;8556;52.218;9.884;2022-11-09T07:02:28;13.80;1.00
16879;DHT22;8556;52.218;9.884;2022-11-09T07:04:54;13.90;1.00
16879;DHT22;8556;52.218;9.884;2022-11-09T07:07:23;14.00;1.00
16879;DHT22;8556;52.218;9.884;2022-11-09T07:09:49;13.90;1.00
16879;DHT22;8556;52.218;9.884;2022-11-09T07:12:16;14.00;1.00
16879;DHT22;8556;52.218;9.884;2022-11-09T07:14:43;14.00;1.00
16879;DHT22;8556;52.218;9.884;2022-11-09T07:17:10;14.00;1.00
16879;DHT22;8556;52.218;9.884;2022-11-09T07:19:37;13.90;1.00
16879;DHT22;8556;52.218;9.884;2022-11-09T07:22:03;14.10;1.00
16879;DHT22;8556;52.218;9.884;2022-11-09T07:24:32;14.20;1.00
16879;DHT22;8556;52.218;9.884;2022-11-09T07:26:58;14.20;1.00
16879;DHT22;8556;52.218;9.884;2022-11-09T07:29:25;14.30;1.00
16879;DHT22;8556;52.218;9.884;2022-11-09T07:31:52;14.30;1.00
16879;DHT22;8556;52.218;9.884;2022-11-09T07:34:19;14.30;1.00
16879;DHT22;8556;52.218;9.884;2022-11-09T07:36:45;14.40;1.00
16879;DHT22;8556;52.218;9.884;2022-11-09T07:39:12;14.50;99.90
16879;DHT22;8556;52.218;9.884;2022-11-09T07:41:40;14.60;99.90
16879;DHT22;8556;52.218;9.884;2022-11-09T07:44:07;14.60;99.90
16879;DHT22;8556;52.218;9.884;2022-11-09T07:46:39;14.80;1.00
16879;DHT22;8556;52.218;9.884;2022-11-09T07:49:05;14.80;1.00
16879;DHT22;8556;52.218;9.884;2022-11-09T07:51:33;14.90;1.00
16879;DHT22;8556;52.218;9.884;2022-11-09T07:54:00;15.00;99.90
16879;DHT22;8556;52.218;9.884;2022-11-09T07:56:27;15.20;1.00
16879;DHT22;8556;52.218;9.884;2022-11-09T07:58:55;15.30;1.00
16879;DHT22;8556;52.218;9.884;2022-11-09T08:01:22;15.30;1.00
16879;DHT22;8556;52.218;9.884;2022-11-09T08:03:49;15.30;1.00
16879;DHT22;8556;52.218;9.884;2022-11-09T08:06:16;15.30;99.90
16879;DHT22;8556;52.218;9.884;2022-11-09T08:08:42;15.20;98.60
16879;DHT22;8556;52.218;9.884;2022-11-09T08:11:09;15.30;99.90
16879;DHT22;8556;52.218;9.884;2022-11-09T08:13:36;15.30;99.90
16879;DHT22;8556;52.218;9.884;2022-11-09T08:16:04;15.30;1.00
16879;DHT22;8556;52.218;9.884;2022-11-09T08:18:31;15.30;1.00
16879;DHT22;8556;52.218;9.884;2022-11-09T08:21:00;15.40;1.00
16879;DHT22;8556;52.218;9.884;2022-11-09T08:23:28;15.40;99.90
16879;DHT22;8556;52.218;9.884;2022-11-09T08:25:55;15.40;1.00
16879;DHT22;8556;52.218;9.884;2022-11-09T08:28:22;15.30;99.90
16879;DHT22;8556;52.218;9.884;2022-11-09T08:30:55;15.30;1.00
16879;DHT22;8556;52.218;9.884;2022-11-09T08:33:24;15.30;1.00
16879;DHT22;8556;52.218;9.884;2022-11-09T08:35:50;15.30;1.00
16879;DHT22;8556;52.218;9.884;2022-11-09T08:38:17;15.20;1.00
16879;DHT22;8556;52.218;9.884;2022-11-09T08:40:44;15.20;1.00
16879;DHT22;8556;52.218;9.884;2022-11-09T08:43:11;15.20;1.00
16879;DHT22;8556;52.218;9.884;2022-11-09T08:45:39;15.20;99.90
16879;DHT22;8556;52.218;9.884;2022-11-09T08:48:07;15.20;99.90
16879;DHT22;8556;52.218;9.884;2022-11-09T08:50:36;15.10;1.00
16879;DHT22;8556;52.218;9.884;2022-11-09T08:53:03;15.10;1.00
16879;DHT22;8556;52.218;9.884;2022-11-09T08:55:31;14.90;99.90
16879;DHT22;8556;52.218;9.884;2022-11-09T08:57:59;14.70;99.90
16879;DHT22;8556;52.218;9.884;2022-11-09T09:00:27;14.50;99.90
16879;DHT22;8556;52.218;9.884;2022-11-09T09:02:54;14.40;99.90
16879;DHT22;8556;52.218;9.884;2022-11-09T09:05:21;14.10;99.90
16879;DHT22;8556;52.218;9.884;2022-11-09T09:07:50;14.10;99.90
16879;DHT22;8556;52.218;9.884;2022-11-09T09:10:16;14.00;99.90
16879;DHT22;8556;52.218;9.884;2022-11-09T09:12:43;13.80;99.90
16879;DHT22;8556;52.218;9.884;2022-11-09T09:15:10;13.70;99.90
16879;DHT22;8556;52.218;9.884;2022-11-09T09:17:37;13.70;99.90
16879;DHT22;8556;52.218;9.884;2022-11-09T09:20:05;13.60;99.90
16879;DHT22;8556;52.218;9.884;2022-11-09T09:22:32;13.50;99.90
16879;DHT22;8556;52.218;9.884;2022-11-09T09:25:00;13.50;99.90
16879;DHT22;8556;52.218;9.884;2022-11-09T09:27:27;13.50;99.90
16879;DHT22;8556;52.218;9.884;2022-11-09T09:29:55;13.40;99.90
16879;DHT22;8556;52.218;9.884;2022-11-09T09:32:22;13.40;99.90
16879;DHT22;8556;52.218;9.884;2022-11-09T09:34:49;13.40;99.90
16879;DHT22;8556;52.218;9.884;2022-11-09T09:37:16;13.20;99.90
16879;DHT22;8556;52.218;9.884;2022-11-09T09:39:43;13.10;99.90
16879;DHT22;8556;52.218;9.884;2022-11-09T09:42:16;13.20;99.90
16879;DHT22;8556;52.218;9.884;2022-11-09T09:44:48;13.10;99.90
16879;DHT22;8556;52.218;9.884;2022-11-09T09:47:20;13.20;99.90
16879;DHT22;8556;52.218;9.884;2022-11-09T09:49:53;13.20;99.90
16879;DHT22;8556;52.218;9.884;2022-11-09T09:52:26;13.20;99.90
16879;DHT22;8556;52.218;9.884;2022-11-09T09:54:59;13.20;99.90
16879;DHT22;8556;52.218;9.884;2022-11-09T09:57:30;13.20;99.90
16879;DHT22;8556;52.218;9.884;2022-11-09T10:00:00;13.20;99.90
16879;DHT22;8556;52.218;9.884;2022-11-09T10:02:28;13.20;99.90
16879;DHT22;8556;52.218;9.884;2022-11-09T10:04:58;13.20;99.90
16879;DHT22;8556;52.218;9.884;2022-11-09T10:07:28;13.10;99.90
16879;DHT22;8556;52.218;9.884;2022-11-09T10:10:09;13.10;99.90
16879;DHT22;8556;52.218;9.884;2022-11-09T10:12:52;13.10;99.90
16879;DHT22;8556;52.218;9.884;2022-11-09T10:15:26;13.10;99.90
16879;DHT22;8556;52.218;9.884;2022-11-09T10:18:04;13.20;99.90
16879;DHT22;8556;52.218;9.884;2022-11-09T10:20:58;13.30;99.90
16879;DHT22;8556;52.218;9.884;2022-11-09T10:23:43;13.20;99.90
16879;DHT22;8556;52.218;9.884;2022-11-09T10:26:16;13.20;99.90
16879;DHT22;8556;52.218;9.884;2022-11-09T10:28:49;13.20;99.90
16879;DHT22;8556;52.218;9.884;2022-11-09T10:31:20;13.20;99.90
16879;DHT22;8556;52.218;9.884;2022-11-09T10:33:51;13.20;99.90
16879;DHT22;8556;52.218;9.884;2022-11-09T10:36:24;13.20;99.90
16879;DHT22;8556;52.218;9.884;2022-11-09T10:38:55;13.20;99.90
16879;DHT22;8556;52.218;9.884;2022-11-09T10:41:27;13.20;99.90
16879;DHT22;8556;52.218;9.884;2022-11-09T10:43:57;13.20;99.90
16879;DHT22;8556;52.218;9.884;2022-11-09T10:46:24;13.20;99.90
16879;DHT22;8556;52.218;9.884;2022-11-09T10:48:52;13.20;99.90
16879;DHT22;8556;52.218;9.884;2022-11-09T10:51:38;13.20;99.90
16879;DHT22;8556;52.218;9.884;2022-11-09T10:54:14;13.20;99.90
16879;DHT22;8556;52.218;9.884;2022-11-09T10:56:46;13.50;99.90
16879;DHT22;8556;52.218;9.884;2022-11-09T10:59:35;14.00;99.90
16879;DHT22;8556;52.218;9.884;2022-11-09T11:02:37;14.30;99.90
16879;DHT22;8556;52.218;9.884;2022-11-09T11:05:29;14.20;99.90
16879;DHT22;8556;52.218;9.884;2022-11-09T11:07:57;14.60;99.90
16879;DHT22;8556;52.218;9.884;2022-11-09T11:10:24;15.00;99.90
16879;DHT22;8556;52.218;9.884;2022-11-09T11:13:14;15.40;99.90
16879;DHT22;8556;52.218;9.884;2022-11-09T11:15:46;15.60;99.90
16879;DHT22;8556;52.218;9.884;2022-11-09T11:18:17;15.50;99.90
16879;DHT22;8556;52.218;9.884;2022-11-09T11:20:44;15.50;99.90
16879;DHT22;8556;52.218;9.884;2022-11-09T11:23:13;15.30;99.90
16879;DHT22;8556;52.218;9.884;2022-11-09T11:25:57;15.30;99.90
16879;DHT22;8556;52.218;9.884;2022-11-09T11:28:32;15.10;99.90
16879;DHT22;8556;52.218;9.884;2022-11-09T11:31:02;14.80;99.90
16879;DHT22;8556;52.218;9.884;2022-11-09T11:33:29;14.60;99.90
16879;DHT22;8556;52.218;9.884;2022-11-09T11:36:06;14.70;99.90
16879;DHT22;8556;52.218;9.884;2022-11-09T11:38:40;14.60;99.90
16879;DHT22;8556;52.218;9.884;2022-11-09T11:44:11;14.40;99.90
16879;DHT22;8556;52.218;9.884;2022-11-09T11:46:45;14.40;99.90
16879;DHT22;8556;52.218;9.884;2022-11-09T11:49:36;14.30;99.90
16879;DHT22;8556;52.218;9.884;2022-11-09T11:52:13;14.30;99.90
16879;DHT22;8556;52.218;9.884;2022-11-09T11:54:50;14.30;99.90
16879;DHT22;8556;52.218;9.884;2022-11-09T11:57:25;14.30;99.90
16879;DHT22;8556;52.218;9.884;2022-11-09T12:00:03;13.90;99.90
16879;DHT22;8556;52.218;9.884;2022-11-09T12:02:52;14.20;99.90
16879;DHT22;8556;52.218;9.884;2022-11-09T12:08:38;13.80;99.90
16879;DHT22;8556;52.218;9.884;2022-11-09T12:11:14;14.00;99.90
16879;DHT22;8556;52.218;9.884;2022-11-09T12:13:55;14.30;99.90
16879;DHT22;8556;52.218;9.884;2022-11-09T12:16:29;14.20;99.90
16879;DHT22;8556;52.218;9.884;2022-11-09T12:19:26;14.10;99.90
16879;DHT22;8556;52.218;9.884;2022-11-09T12:22:05;14.30;99.90
16879;DHT22;8556;52.218;9.884;2022-11-09T12:24:40;14.20;99.90
16879;DHT22;8556;52.218;9.884;2022-11-09T12:27:25;14.10;99.90
16879;DHT22;8556;52.218;9.884;2022-11-09T12:30:04;14.20;99.90
16879;DHT22;8556;52.218;9.884;2022-11-09T12:32:38;14.00;99.90
16879;DHT22;8556;52.218;9.884;2022-11-09T12:35:28;13.80;99.90
16879;DHT22;8556;52.218;9.884;2022-11-09T12:38:01;14.30;99.90
16879;DHT22;8556;52.218;9.884;2022-11-09T12:40:31;14.70;99.90
16879;DHT22;8556;52.218;9.884;2022-11-09T12:43:10;14.60;99.90
16879;DHT22;8556;52.218;9.884;2022-11-09T12:45:44;14.90;99.90
16879;DHT22;8556;52.218;9.884;2022-11-09T12:48:21;15.60;99.90
16879;DHT22;8556;52.218;9.884;2022-11-09T12:50:50;16.50;99.90
16879;DHT22;8556;52.218;9.884;2022-11-09T12:53:27;15.70;99.90
16879;DHT22;8556;52.218;9.884;2022-11-09T12:55:57;16.90;99.90
16879;DHT22;8556;52.218;9.884;2022-11-09T12:58:27;17.50;99.90
16879;DHT22;8556;52.218;9.884;2022-11-09T13:00:57;17.60;45.00
16879;DHT22;8556;52.218;9.884;2022-11-09T13:03:26;17.10;1.00
16879;DHT22;8556;52.218;9.884;2022-11-09T13:06:15;16.30;99.90
16879;DHT22;8556;52.218;9.884;2022-11-09T13:08:56;16.30;99.90
16879;DHT22;8556;52.218;9.884;2022-11-09T13:11:39;16.60;99.90
16879;DHT22;8556;52.218;9.884;2022-11-09T13:14:25;16.70;99.90
16879;DHT22;8556;52.218;9.884;2022-11-09T13:16:56;16.30;99.90
16879;DHT22;8556;52.218;9.884;2022-11-09T13:19:48;15.80;99.90
16879;DHT22;8556;52.218;9.884;2022-11-09T13:25:48;15.30;99.90
16879;DHT22;8556;52.218;9.884;2022-11-09T13:28:40;15.20;99.90
16879;DHT22;8556;52.218;9.884;2022-11-09T13:31:10;15.00;99.90
16879;DHT22;8556;52.218;9.884;2022-11-09T13:33:37;15.00;99.90
16879;DHT22;8556;52.218;9.884;2022-11-09T13:36:19;15.00;99.90
16879;DHT22;8556;52.218;9.884;2022-11-09T13:39:25;15.00;99.90
16879;DHT22;8556;52.218;9.884;2022-11-09T13:41:55;15.10;99.90
16879;DHT22;8556;52.218;9.884;2022-11-09T13:44:25;15.20;99.90
16879;DHT22;8556;52.218;9.884;2022-11-09T13:46:52;15.20;99.90
16879;DHT22;8556;52.218;9.884;2022-11-09T13:49:46;15.20;99.90
16879;DHT22;8556;52.218;9.884;2022-11-09T13:52:51;15.00;99.90
16879;DHT22;8556;52.218;9.884;2022-11-09T13:55:34;15.00;83.90
16879;DHT22;8556;52.218;9.884;2022-11-09T13:58:11;15.00;1.00
16879;DHT22;8556;52.218;9.884;2022-11-09T14:00:46;14.90;1.00
16879;DHT22;8556;52.218;9.884;2022-11-09T14:03:19;14.80;1.00
16879;DHT22;8556;52.218;9.884;2022-11-09T14:05:51;14.70;1.00
16879;DHT22;8556;52.218;9.884;2022-11-09T14:08:42;14.60;1.00
16879;DHT22;8556;52.218;9.884;2022-11-09T14:11:28;14.50;1.00
16879;DHT22;8556;52.218;9.884;2022-11-09T14:14:28;14.40;1.00
16879;DHT22;8556;52.218;9.884;2022-11-09T14:17:03;14.40;1.00
16879;DHT22;8556;52.218;9.884;2022-11-09T14:19:43;14.40;1.00
16879;DHT22;8556;52.218;9.884;2022-11-09T14:22:18;14.40;99.90
16879;DHT22;8556;52.218;9.884;2022-11-09T14:24:48;14.30;1.00
16879;DHT22;8556;52.218;9.884;2022-11-09T14:27:21;14.40;1.00
16879;DHT22;8556;52.218;9.884;2022-11-09T14:29:54;14.20;1.00
16879;DHT22;8556;52.218;9.884;2022-11-09T14:32:28;14.30;1.00
16879;DHT22;8556;52.218;9.884;2022-11-09T14:35:19;14.00;99.90
16879;DHT22;8556;52.218;9.884;2022-11-09T14:37:47;14.10;1.00
16879;DHT22;8556;52.218;9.884;2022-11-09T14:40:17;13.90;99.90
16879;DHT22;8556;52.218;9.884;2022-11-09T14:42:47;13.90;99.90
16879;DHT22;8556;52.218;9.884;2022-11-09T14:45:18;13.70;99.90
16879;DHT22;8556;52.218;9.884;2022-11-09T14:47:48;13.80;99.90
16879;DHT22;8556;52.218;9.884;2022-11-09T14:50:22;13.80;99.90
16879;DHT22;8556;52.218;9.884;2022-11-09T14:52:52;13.70;99.90
16879;DHT22;8556;52.218;9.884;2022-11-09T14:55:21;13.70;99.90
16879;DHT22;8556;52.218;9.884;2022-11-09T14:57:51;13.70;1.00
16879;DHT22;8556;52.218;9.884;2022-11-09T15:00:30;13.80;1.00
16879;DHT22;8556;52.218;9.884;2022-11-09T15:02:58;13.80;4.80
16879;DHT22;8556;52.218;9.884;2022-11-09T15:05:31;14.00;1.00
16879;DHT22;8556;52.218;9.884;2022-11-09T15:08:05;13.90;1.00
16879;DHT22;8556;52.218;9.884;2022-11-09T15:10:33;13.80;99.90
16879;DHT22;8556;52.218;9.884;2022-11-09T15:13:01;13.70;1.00
16879;DHT22;8556;52.218;9.884;2022-11-09T15:15:32;13.60;99.90
16879;DHT22;8556;52.218;9.884;2022-11-09T15:18:00;13.70;99.90
16879;DHT22;8556;52.218;9.884;2022-11-09T15:20:31;13.90;1.00
16879;DHT22;8556;52.218;9.884;2022-11-09T15:23:00;13.80;1.00
16879;DHT22;8556;52.218;9.884;2022-11-09T15:25:33;13.80;1.00
16879;DHT22;8556;52.218;9.884;2022-11-09T15:28:15;13.70;1.00
16879;DHT22;8556;52.218;9.884;2022-11-09T15:30:47;13.60;1.00
16879;DHT22;8556;52.218;9.884;2022-11-09T15:33:21;13.50;1.00
16879;DHT22;8556;52.218;9.884;2022-11-09T15:35:54;13.50;1.00
16879;DHT22;8556;52.218;9.884;2022-11-09T15:38:34;13.40;1.00
16879;DHT22;8556;52.218;9.884;2022-11-09T15:41:05;13.30;99.90
16879;DHT22;8556;52.218;9.884;2022-11-09T15:43:35;13.10;99.90
16879;DHT22;8556;52.218;9.884;2022-11-09T15:46:05;13.30;99.90
16879;DHT22;8556;52.218;9.884;2022-11-09T15:48:35;13.40;99.90
16879;DHT22;8556;52.218;9.884;2022-11-09T15:51:04;13.30;1.00
16879;DHT22;8556;52.218;9.884;2022-11-09T15:53:31;13.20;1.00
16879;DHT22;8556;52.218;9.884;2022-11-09T15:55:58;13.10;1.00
16879;DHT22;8556;52.218;9.884;2022-11-09T15:58:28;12.80;99.90
16879;DHT22;8556;52.218;9.884;2022-11-09T16:00:55;12.90;1.00
16879;DHT22;8556;52.218;9.884;2022-11-09T16:03:25;12.60;1.00
16879;DHT22;8556;52.218;9.884;2022-11-09T16:05:52;12.60;1.00
16879;DHT22;8556;52.218;9.884;2022-11-09T16:08:22;12.60;1.00
16879;DHT22;8556;52.218;9.884;2022-11-09T16:10:49;12.30;1.00
16879;DHT22;8556;52.218;9.884;2022-11-09T16:13:17;12.20;31.90
16879;DHT22;8556;52.218;9.884;2022-11-09T16:15:47;12.00;99.90
16879;DHT22;8556;52.218;9.884;2022-11-09T16:18:14;12.00;99.90
16879;DHT22;8556;52.218;9.884;2022-11-09T16:20:46;11.80;99.90
16879;DHT22;8556;52.218;9.884;2022-11-09T16:23:15;11.90;99.90